createdAt,value
2019-05-18T00:01:32.608Z,14.25
2019-05-18T00:04:58.204Z,14.24
2019-05-18T00:08:23.868Z,14.22
2019-05-18T00:11:49.473Z,14.12
2019-05-18T00:15:15.511Z,14.03
2019-05-18T00:18:41.112Z,13.91
2019-05-18T00:22:06.715Z,13.82
2019-05-18T00:25:32.313Z,13.83
2019-05-18T00:28:58.068Z,13.81
2019-05-18T00:32:23.743Z,13.82
2019-05-18T00:35:49.351Z,13.79
2019-05-18T00:39:14.952Z,13.79
2019-05-18T00:42:40.551Z,13.77
2019-05-18T00:46:06.627Z,13.65
2019-05-18T00:49:32.224Z,13.58
2019-05-18T00:52:57.821Z,13.57
2019-05-18T00:56:23.492Z,13.50
2019-05-18T00:59:49.097Z,13.56
2019-05-18T01:03:14.869Z,13.50
2019-05-18T01:06:40.809Z,13.51
2019-05-18T01:10:08.713Z,13.58
2019-05-18T01:13:34.323Z,13.61
2019-05-18T01:16:59.919Z,13.57
2019-05-18T01:20:25.544Z,13.60
2019-05-18T01:23:51.137Z,13.61
2019-05-18T01:27:16.815Z,13.58
2019-05-18T01:30:42.573Z,13.54
2019-05-18T01:34:08.168Z,13.50
2019-05-18T01:37:33.829Z,13.51
2019-05-18T01:40:59.433Z,13.52
2019-05-18T01:44:25.032Z,13.45
2019-05-18T01:47:50.816Z,13.40
2019-05-18T01:51:17.390Z,13.37
2019-05-18T01:54:43.177Z,13.31
2019-05-18T01:58:08.773Z,13.25
2019-05-18T02:01:34.382Z,13.19
2019-05-18T02:05:00.001Z,13.16
2019-05-18T02:08:25.590Z,13.15
2019-05-18T02:11:51.212Z,13.17
2019-05-18T02:15:16.929Z,13.16
2019-05-18T02:18:42.525Z,13.15
2019-05-18T02:22:08.149Z,13.09
2019-05-18T02:25:33.752Z,13.05
2019-05-18T02:28:59.472Z,13.09
2019-05-18T02:32:25.106Z,13.08
2019-05-18T02:35:50.677Z,13.12
2019-05-18T02:39:16.649Z,13.19
2019-05-18T02:42:42.249Z,13.15
2019-05-18T02:46:07.844Z,13.19
2019-05-18T02:49:33.458Z,13.14
2019-05-18T02:52:59.052Z,13.10
2019-05-18T02:56:24.930Z,13.06
2019-05-18T02:59:50.529Z,13.05
2019-05-18T03:03:17.206Z,13.07
2019-05-18T03:06:42.803Z,13.06
2019-05-18T03:10:09.423Z,12.98
2019-05-18T03:13:35.344Z,13.08
2019-05-18T03:17:01.106Z,13.03
2019-05-18T03:20:26.708Z,12.95
2019-05-18T03:23:52.509Z,12.94
2019-05-18T03:27:18.115Z,13.01
2019-05-18T03:30:43.721Z,13.07
2019-05-18T03:34:09.318Z,12.97
2019-05-18T03:37:34.923Z,12.92
2019-05-18T03:41:00.520Z,12.97
2019-05-18T03:44:26.133Z,12.84
2019-05-18T03:47:51.725Z,12.86
2019-05-18T03:51:17.624Z,12.75
2019-05-18T03:54:43.225Z,12.80
2019-05-18T03:58:08.854Z,12.71
2019-05-18T04:01:34.798Z,12.70
2019-05-18T04:05:00.407Z,12.73
2019-05-18T04:08:26.018Z,12.74
2019-05-18T04:11:51.643Z,12.79
2019-05-18T04:15:17.312Z,12.82
2019-05-18T04:18:42.916Z,12.74
2019-05-18T04:22:08.592Z,12.82
2019-05-18T04:25:34.203Z,12.81
2019-05-18T04:28:59.796Z,12.85
2019-05-18T04:32:25.398Z,12.87
2019-05-18T04:35:51.003Z,12.95
2019-05-18T04:39:16.602Z,12.94
2019-05-18T04:42:42.226Z,12.88
2019-05-18T04:46:07.835Z,12.81
2019-05-18T04:49:33.453Z,12.88
2019-05-18T04:52:59.047Z,12.92
2019-05-18T04:56:24.655Z,12.95
2019-05-18T04:59:50.252Z,13.00
2019-05-18T05:03:15.855Z,13.00
2019-05-18T05:06:41.517Z,13.07
2019-05-18T05:10:09.136Z,13.12
2019-05-18T05:13:34.736Z,13.17
2019-05-18T05:17:00.852Z,13.21
2019-05-18T05:20:26.448Z,13.26
2019-05-18T05:23:52.130Z,13.29
2019-05-18T05:27:17.726Z,13.39
2019-05-18T05:30:43.717Z,13.42
2019-05-18T05:34:09.317Z,13.44
2019-05-18T05:37:34.920Z,13.48
2019-05-18T05:41:03.286Z,13.65
2019-05-18T05:44:28.883Z,13.72
2019-05-18T05:47:54.494Z,13.82
2019-05-18T05:51:20.643Z,13.90
2019-05-18T05:54:46.250Z,13.95
2019-05-18T05:58:11.863Z,14.02
2019-05-18T06:01:37.466Z,14.05
2019-05-18T06:05:03.088Z,14.09
2019-05-18T06:08:28.680Z,14.03
2019-05-18T06:11:54.790Z,14.05
2019-05-18T06:15:20.520Z,14.08
2019-05-18T06:18:46.168Z,14.06
2019-05-18T06:22:11.761Z,14.25
2019-05-18T06:25:37.381Z,14.29
2019-05-18T06:29:02.984Z,14.49
2019-05-18T06:32:28.606Z,14.64
2019-05-18T06:35:54.306Z,14.80
2019-05-18T06:39:19.949Z,14.94
2019-05-18T06:42:45.556Z,14.99
2019-05-18T06:46:11.163Z,15.16
2019-05-18T06:49:36.772Z,15.23
2019-05-18T06:53:03.457Z,15.27
2019-05-18T06:56:29.666Z,15.36
2019-05-18T06:59:55.488Z,15.31
2019-05-18T07:03:21.230Z,15.14
2019-05-18T07:06:46.805Z,15.23
2019-05-18T07:10:13.703Z,15.04
2019-05-18T07:13:39.338Z,15.42
2019-05-18T07:17:04.939Z,15.82
2019-05-18T07:20:30.547Z,15.78
2019-05-18T07:23:56.143Z,15.72
2019-05-18T07:27:21.760Z,15.53
2019-05-18T07:30:47.366Z,15.81
2019-05-18T07:34:12.966Z,15.95
2019-05-18T07:37:38.570Z,16.08
2019-05-18T07:41:04.217Z,16.22
2019-05-18T07:44:30.584Z,16.55
2019-05-18T07:47:56.200Z,16.95
2019-05-18T07:51:36.274Z,16.82
2019-05-18T07:54:51.268Z,16.75
2019-05-18T07:58:16.865Z,16.79
2019-05-18T08:01:42.465Z,16.63
2019-05-18T08:05:08.975Z,16.40
2019-05-18T08:08:34.999Z,16.31
2019-05-18T08:12:00.604Z,15.99
2019-05-18T08:15:26.261Z,15.90
2019-05-18T08:18:51.859Z,16.09
2019-05-18T08:22:17.465Z,16.31
2019-05-18T08:25:43.063Z,16.29
2019-05-18T08:29:08.713Z,16.24
2019-05-18T08:32:34.308Z,16.39
2019-05-18T08:35:59.921Z,16.64
2019-05-18T08:39:25.519Z,16.87
2019-05-18T08:42:51.317Z,16.89
2019-05-18T08:46:17.885Z,17.41
2019-05-18T08:49:43.501Z,17.56
2019-05-18T08:53:09.084Z,17.92
2019-05-18T08:56:35.237Z,18.34
2019-05-18T09:00:00.837Z,18.50
2019-05-18T09:03:27.976Z,17.92
2019-05-18T09:06:53.568Z,17.94
2019-05-18T09:10:21.134Z,18.02
2019-05-18T09:13:46.736Z,18.14
2019-05-18T09:17:13.058Z,18.17
2019-05-18T09:20:38.732Z,18.36
2019-05-18T09:24:04.338Z,18.10
2019-05-18T09:27:29.941Z,18.37
2019-05-18T09:30:55.566Z,19.19
2019-05-18T09:34:21.177Z,19.74
2019-05-18T09:37:46.781Z,20.09
2019-05-18T09:41:12.386Z,20.48
2019-05-18T09:44:37.997Z,20.76
2019-05-18T09:48:03.646Z,20.80
2019-05-18T09:51:29.653Z,20.66
2019-05-18T09:54:55.222Z,20.69
2019-05-18T09:58:21.306Z,20.89
2019-05-18T10:01:46.908Z,21.16
2019-05-18T10:05:13.531Z,21.30
2019-05-18T10:08:39.207Z,21.36
2019-05-18T10:12:04.818Z,21.59
2019-05-18T10:15:30.414Z,21.14
2019-05-18T10:18:56.036Z,21.20
2019-05-18T10:22:21.642Z,21.51
2019-05-18T10:25:47.238Z,21.95
2019-05-18T10:29:12.840Z,22.19
2019-05-18T10:32:38.462Z,22.17
2019-05-18T10:36:04.202Z,22.24
2019-05-18T10:39:29.985Z,22.29
2019-05-18T10:42:55.581Z,22.55
2019-05-18T10:46:21.182Z,22.65
2019-05-18T10:49:46.795Z,22.76
2019-05-18T10:53:27.427Z,22.57
2019-05-18T10:56:39.742Z,22.51
2019-05-18T11:00:11.890Z,22.68
2019-05-18T11:03:37.627Z,22.87
2019-05-18T11:07:04.274Z,22.69
2019-05-18T11:10:30.246Z,22.65
2019-05-18T11:13:55.951Z,22.78
2019-05-18T11:17:21.555Z,22.99
2019-05-18T11:20:47.485Z,23.05
2019-05-18T11:24:13.380Z,23.09
2019-05-18T11:27:39.272Z,23.33
2019-05-18T11:31:04.880Z,23.58
2019-05-18T11:34:30.900Z,23.38
2019-05-18T11:37:56.493Z,23.65
2019-05-18T11:41:22.212Z,23.65
2019-05-18T11:44:47.796Z,23.60
2019-05-18T11:48:13.438Z,23.46
2019-05-18T11:51:39.037Z,23.73
2019-05-18T11:55:06.343Z,23.60
2019-05-18T11:58:31.948Z,24.01
2019-05-18T12:01:57.783Z,24.04
2019-05-18T12:05:25.036Z,24.68
2019-05-18T12:08:50.718Z,24.30
2019-05-18T12:12:17.043Z,24.09
2019-05-18T12:15:42.679Z,24.12
2019-05-18T12:19:08.282Z,24.48
2019-05-18T12:22:34.401Z,24.65
2019-05-18T12:26:00.002Z,25.07
2019-05-18T12:29:25.629Z,25.40
2019-05-18T12:32:51.409Z,25.79
2019-05-18T12:36:19.116Z,26.35
2019-05-18T12:39:44.726Z,26.37
2019-05-18T12:43:10.380Z,25.37
2019-05-18T12:46:36.160Z,25.93
2019-05-18T12:50:01.847Z,26.62
2019-05-18T12:53:27.446Z,26.85
2019-05-18T12:56:53.070Z,27.81
2019-05-18T13:00:21.061Z,28.46
2019-05-18T13:03:47.179Z,28.78
2019-05-18T13:07:12.789Z,28.25
2019-05-18T13:10:38.417Z,28.17
2019-05-18T13:14:04.260Z,27.66
2019-05-18T13:17:29.887Z,27.93
2019-05-18T13:20:57.513Z,28.28
2019-05-18T13:24:23.383Z,28.50
2019-05-18T13:27:48.977Z,28.16
2019-05-18T13:31:14.604Z,27.86
2019-05-18T13:34:40.208Z,27.78
2019-05-18T13:38:06.688Z,26.93
2019-05-18T13:41:32.313Z,26.58
2019-05-18T13:44:57.909Z,26.70
2019-05-18T13:48:23.517Z,26.68
2019-05-18T13:51:49.161Z,26.53
2019-05-18T13:55:15.189Z,27.16
2019-05-18T13:58:41.098Z,28.99
2019-05-18T14:02:06.919Z,30.18
2019-05-18T14:05:32.571Z,31.23
2019-05-18T14:08:58.234Z,31.56
2019-05-18T14:12:23.843Z,31.08
2019-05-18T14:15:49.460Z,31.59
2019-05-18T14:19:16.090Z,31.20
2019-05-18T14:22:41.699Z,30.65
2019-05-18T14:26:07.328Z,30.56
2019-05-18T14:29:32.926Z,28.97
2019-05-18T14:32:58.645Z,28.33
2019-05-18T14:36:24.252Z,28.35
2019-05-18T14:39:49.884Z,28.65
2019-05-18T14:43:15.492Z,29.36
2019-05-18T14:46:41.114Z,29.18
2019-05-18T14:50:07.614Z,29.40
2019-05-18T14:53:34.120Z,29.48
2019-05-18T14:56:59.718Z,29.58
2019-05-18T15:00:25.678Z,29.95
2019-05-18T15:03:51.282Z,29.78
2019-05-18T15:07:16.899Z,29.54
2019-05-18T15:10:42.502Z,29.63
2019-05-18T15:14:08.145Z,29.79
2019-05-18T15:17:33.746Z,30.40
2019-05-18T15:20:59.367Z,30.83
2019-05-18T15:24:24.973Z,31.67
2019-05-18T15:27:50.577Z,32.04
2019-05-18T15:31:16.335Z,31.85
2019-05-18T15:34:41.938Z,30.88
2019-05-18T15:38:08.004Z,31.14
2019-05-18T15:41:33.605Z,31.44
2019-05-18T15:44:59.256Z,31.87
2019-05-18T15:48:24.933Z,31.68
2019-05-18T15:51:50.994Z,31.50
2019-05-18T15:55:17.224Z,31.44
2019-05-18T15:58:42.844Z,31.01
2019-05-18T16:02:08.591Z,30.52
2019-05-18T16:05:34.166Z,29.90
2019-05-18T16:08:59.770Z,28.79
2019-05-18T16:12:25.444Z,28.36
2019-05-18T16:15:51.148Z,28.12
2019-05-18T16:19:16.767Z,27.53
2019-05-18T16:22:44.426Z,26.95
2019-05-18T16:26:21.181Z,26.80
2019-05-18T16:29:37.002Z,26.54
2019-05-18T16:33:02.681Z,26.45
2019-05-18T16:36:28.295Z,26.42
2019-05-18T16:39:54.002Z,26.34
2019-05-18T16:43:19.668Z,25.97
2019-05-18T16:46:45.292Z,25.73
2019-05-18T16:50:11.798Z,25.78
2019-05-18T16:53:37.440Z,25.55
2019-05-18T16:57:04.120Z,25.33
2019-05-18T17:00:29.902Z,25.03
2019-05-18T17:03:55.502Z,24.87
2019-05-18T17:07:21.139Z,24.08
2019-05-18T17:10:46.755Z,24.11
2019-05-18T17:14:12.381Z,24.08
2019-05-18T17:17:38.255Z,24.03
2019-05-18T17:21:04.058Z,24.27
2019-05-18T17:24:30.008Z,24.49
2019-05-18T17:27:56.068Z,24.34
2019-05-18T17:31:21.895Z,23.99
2019-05-18T17:34:47.532Z,23.86
2019-05-18T17:38:13.226Z,23.68
2019-05-18T17:41:38.831Z,23.53
2019-05-18T17:45:08.835Z,23.23
2019-05-18T17:48:34.458Z,23.07
2019-05-18T17:52:00.045Z,22.85
2019-05-18T17:55:25.688Z,22.56
2019-05-18T17:58:51.320Z,22.25
2019-05-18T18:02:17.022Z,22.02
2019-05-18T18:05:42.625Z,21.91
2019-05-18T18:09:09.715Z,21.50
2019-05-18T18:12:35.401Z,21.21
2019-05-18T18:16:01.080Z,21.19
2019-05-18T18:19:26.684Z,21.15
2019-05-18T18:22:52.371Z,20.99
2019-05-18T18:26:18.530Z,20.86
2019-05-18T18:29:44.152Z,20.69
2019-05-18T18:33:09.813Z,20.53
2019-05-18T18:36:35.695Z,20.41
2019-05-18T18:40:01.298Z,20.24
2019-05-18T18:43:27.050Z,20.18
2019-05-18T18:46:52.655Z,20.02
2019-05-18T18:50:18.440Z,19.99
2019-05-18T18:53:44.038Z,19.92
2019-05-18T18:57:10.972Z,19.60
2019-05-18T19:00:36.842Z,19.60
2019-05-18T19:04:02.461Z,19.56
2019-05-18T19:07:28.061Z,19.47
2019-05-18T19:10:53.675Z,19.47
2019-05-18T19:14:19.270Z,19.31
2019-05-18T19:17:44.957Z,19.05
2019-05-18T19:21:10.591Z,18.95
2019-05-18T19:24:36.188Z,18.85
2019-05-18T19:28:03.458Z,18.84
2019-05-18T19:31:29.117Z,18.86
2019-05-18T19:34:54.873Z,18.77
2019-05-18T19:38:20.487Z,18.60
2019-05-18T19:41:46.102Z,18.63
2019-05-18T19:45:12.524Z,18.55
2019-05-18T19:48:38.219Z,18.44
2019-05-18T19:52:03.872Z,18.33
2019-05-18T19:55:29.465Z,18.24
2019-05-18T19:58:55.138Z,18.19
2019-05-18T20:02:20.809Z,18.18
2019-05-18T20:05:46.371Z,18.11
2019-05-18T20:09:11.992Z,18.09
2019-05-18T20:12:37.641Z,18.00
2019-05-18T20:16:03.350Z,17.94
2019-05-18T20:19:38.741Z,17.85
2019-05-18T20:22:56.657Z,17.75
2019-05-18T20:26:22.291Z,17.70
2019-05-18T20:29:47.906Z,17.62
2019-05-18T20:33:13.503Z,17.54
2019-05-18T20:36:39.132Z,17.56
2019-05-18T20:40:08.876Z,17.48
2019-05-18T20:43:34.735Z,17.43
2019-05-18T20:47:00.342Z,17.38
2019-05-18T20:50:25.970Z,17.36
2019-05-18T20:53:51.567Z,17.40
2019-05-18T20:57:17.194Z,17.30
2019-05-18T21:00:42.874Z,17.24
2019-05-18T21:04:09.012Z,17.10
2019-05-18T21:07:35.366Z,17.01
2019-05-18T21:11:00.991Z,16.90
2019-05-18T21:14:26.605Z,16.71
2019-05-18T21:17:52.205Z,16.69
2019-05-18T21:21:17.834Z,16.68
2019-05-18T21:24:43.461Z,16.59
2019-05-18T21:28:09.064Z,16.60
2019-05-18T21:31:34.857Z,16.48
2019-05-18T21:35:00.649Z,16.35
2019-05-18T21:38:26.262Z,16.35
2019-05-18T21:41:51.933Z,16.26
2019-05-18T21:45:18.785Z,16.23
2019-05-18T21:48:44.390Z,16.15
2019-05-18T21:52:10.025Z,16.18
2019-05-18T21:55:36.382Z,16.09
2019-05-18T21:59:11.239Z,15.97
2019-05-18T22:02:30.390Z,15.95
2019-05-18T22:05:57.303Z,15.84
2019-05-18T22:09:22.902Z,15.85
2019-05-18T22:12:48.520Z,15.89
2019-05-18T22:16:14.802Z,15.98
2019-05-18T22:19:40.411Z,16.05
2019-05-18T22:23:06.316Z,16.00
2019-05-18T22:26:31.926Z,15.86
2019-05-18T22:29:57.536Z,15.88
2019-05-18T22:33:23.175Z,15.97
2019-05-18T22:36:48.774Z,15.88
2019-05-18T22:40:14.531Z,15.85
2019-05-18T22:43:40.130Z,15.74
2019-05-18T22:47:05.732Z,15.74
2019-05-18T22:50:31.395Z,15.66
2019-05-18T22:53:57.415Z,15.76
2019-05-18T22:57:23.014Z,15.64
2019-05-18T23:00:48.629Z,15.57
2019-05-18T23:04:14.226Z,15.55
2019-05-18T23:07:39.847Z,15.48
2019-05-18T23:11:05.441Z,15.45
2019-05-18T23:14:31.042Z,15.44
2019-05-18T23:17:56.729Z,15.39
2019-05-18T23:21:22.362Z,15.38
2019-05-18T23:24:48.031Z,15.51
2019-05-18T23:28:13.915Z,15.55
2019-05-18T23:31:39.859Z,15.46
2019-05-18T23:35:06.839Z,15.38
2019-05-18T23:38:32.451Z,15.38
2019-05-18T23:41:58.118Z,15.40
2019-05-18T23:45:23.726Z,15.31
2019-05-18T23:48:49.348Z,15.34
2019-05-18T23:52:14.947Z,15.26
2019-05-18T23:55:40.646Z,15.26
2019-05-18T23:59:06.495Z,15.18
